EGAA/BFS METAR and TAF weather

Enter ICAO airport designator
Station Type Date Time Source
EGAA METAR 2018/01/23 01:50 UTC NOAA

EGAA 230150Z 18011KT 6000 BKN010 BKN014 OVC019 08/07 Q1005


Station Type Date Time Source
EGAA Decoded METAR 2018/01/23 01:50 UTC NOAA

Belfast / Aldergrove Airport, United Kingdom (EGAA) 54-39N 006-13W 0M
Jan 22, 2018 - 08:50 PM EST / 2018.01.23 0150 UTC
Wind: from the S (180 degrees) at 13 MPH (11 KT):0
Visibility: 3 mile(s):0
Sky conditions: overcast
Temperature: 46 F (8 C)
Dew Point: 44 F (7 C)
Relative Humidity: 93%
Pressure (altimeter): 29.68 in. Hg (1005 hPa)
ob: EGAA 230150Z 18011KT 6000 BKN010 BKN014 OVC019 08/07 Q1005
cycle: 2

Station Type Date Time Source
EGAA TAF 2018/01/22 18:15 UTC NOAA

TAF TAF EGAA 221701Z 2218/2318 22012KT 9999 FEW020 SCT030
BECMG 2223/2302 18018G28KT
TEMPO 2300/2310 7000 RA -RADZ BKN012 PROB40
TEMPO 2302/2308 4000 RADZ BKN004
BECMG 2309/2311 23020G30KT PROB40
TEMPO 2312/2318 7000 SHRA BKN014


Example: see airport list